Kiester, Minnesota
Current Conditions -  °F | °C
As of 1:14 AM on Friday 31 Oct 2014 (Local Time) from KAEL Reporting Station
Clear Clear  
Wind Chill: -6°   Ceiling: Unl
Heat Index: -1°   Visibility: 10mi
Dew Point: -8°   Wind: 12mph
Humidity: 60%   Direction: 350°N
Pressure: 30.34"   Gusts: 18mph
Location:  43.54°N, 93.71°W
Report Text: KAEL 310614Z AUTO 35010G16KT 10SM CLR M01/M08 A3034 RMK AO2
Loading
Personal Weather Stations






























Interactive Weather Map
Tropical Storm Tracking
New forecast layout! Learn more

10-Day Weather Forecast

Advertisements
Track Severe Weather on mobile